Time;durP1;ratioP1;P1;durP2;ratioP2;P2;SDS_P1;SDS_P2;PMS_P1;PMS_P2;Temp;Humidity;BMP_temperature;BMP_pressure;BME280_temperature;BME280_humidity;BME280_pressure;Samples;Min_cycle;Max_cycle;Signal;HPM_P1;HPM_P2
2021/10/24 00:00:30;;;;;;;13.35;10.05;;;17.90;95.50;;;;;;5052117;28;20497;-68
2021/10/24 00:02:56;;;;;;;14.55;10.10;;;18.00;95.50;;;;;;5052417;28;20379;-66
2021/10/24 00:05:22;;;;;;;15.93;10.50;;;18.00;95.40;;;;;;5052317;28;20482;-68
2021/10/24 00:07:48;;;;;;;13.43;10.20;;;17.90;95.30;;;;;;5052152;28;20029;-66
2021/10/24 00:10:14;;;;;;;13.95;10.00;;;18.00;95.20;;;;;;5052096;28;20170;-66
2021/10/24 00:12:40;;;;;;;14.85;10.48;;;18.00;95.10;;;;;;5051999;28;20021;-66
2021/10/24 00:15:06;;;;;;;12.15;9.40;;;17.90;95.00;;;;;;5052348;28;20090;-67
2021/10/24 00:17:32;;;;;;;13.93;9.88;;;17.90;95.00;;;;;;5052200;28;20433;-65
2021/10/24 00:19:59;;;;;;;11.15;9.20;;;17.90;94.90;;;;;;5051986;28;20466;-65
2021/10/24 00:22:24;;;;;;;18.30;10.30;;;17.90;94.90;;;;;;5052132;28;20036;-70
2021/10/24 00:24:51;;;;;;;10.63;8.48;;;17.90;94.90;;;;;;5052442;28;20040;-79
2021/10/24 00:27:17;;;;;;;14.32;9.38;;;17.90;94.70;;;;;;5052380;28;20028;-66
2021/10/24 00:29:43;;;;;;;11.80;9.25;;;17.90;94.80;;;;;;5055696;28;20044;-65
2021/10/24 00:32:08;;;;;;;12.45;8.18;;;17.90;94.60;;;;;;5055506;28;20482;-66
2021/10/24 00:34:34;;;;;;;13.40;9.07;;;17.90;94.60;;;;;;5055864;28;20029;-65
2021/10/24 00:37:00;;;;;;;11.35;8.57;;;17.90;94.50;;;;;;5055558;28;20028;-65
2021/10/24 00:39:26;;;;;;;14.32;8.70;;;17.80;94.50;;;;;;5055955;28;20025;-81
2021/10/24 00:41:52;;;;;;;12.93;8.20;;;17.80;94.30;;;;;;5055479;28;20048;-71
2021/10/24 00:44:24;;;;;;;13.68;8.95;;;17.80;94.20;;;;;;5055629;28;20021;-65
2021/10/24 00:46:51;;;;;;;12.90;9.02;;;17.70;94.20;;;;;;5055743;28;20032;-65
2021/10/24 00:49:17;;;;;;;12.07;7.78;;;17.70;94.30;;;;;;5055516;28;20478;-72
2021/10/24 00:51:45;;;;;;;12.80;8.00;;;17.70;94.10;;;;;;5055224;28;20040;-75
2021/10/24 00:54:12;;;;;;;11.20;7.78;;;17.70;94.10;;;;;;5055216;28;20021;-65
2021/10/24 00:56:44;;;;;;;9.88;7.53;;;17.70;94.00;;;;;;5054487;28;20025;-66
2021/10/24 00:59:13;;;;;;;10.18;7.45;;;17.70;93.90;;;;;;5054336;28;20119;-78
2021/10/24 01:01:39;;;;;;;12.52;7.47;;;17.70;93.90;;;;;;5054921;28;20032;-78
2021/10/24 01:04:05;;;;;;;12.98;7.57;;;17.70;93.60;;;;;;5055242;28;20481;-65
2021/10/24 01:06:36;;;;;;;11.23;7.20;;;17.70;93.50;;;;;;5054985;28;20513;-66
2021/10/24 01:09:06;;;;;;;11.57;7.25;;;17.70;93.30;;;;;;5055253;28;20029;-65
2021/10/24 01:11:32;;;;;;;10.68;8.27;;;17.70;93.30;;;;;;5055066;28;20025;-69
2021/10/24 01:13:58;;;;;;;12.18;7.35;;;17.60;93.30;;;;;;5054996;28;20091;-65
2021/10/24 01:16:24;;;;;;;10.45;7.50;;;17.60;93.30;;;;;;5054972;28;20458;-65
2021/10/24 01:18:50;;;;;;;11.75;7.30;;;17.60;93.40;;;;;;5054928;28;20111;-73
2021/10/24 01:21:17;;;;;;;10.68;6.80;;;17.60;93.40;;;;;;5052208;28;20048;-81
2021/10/24 01:23:43;;;;;;;10.32;7.38;;;17.60;93.30;;;;;;5043583;28;20442;-74
2021/10/24 01:26:09;;;;;;;14.05;6.80;;;17.60;93.40;;;;;;5034928;28;20032;-65
2021/10/24 01:28:35;;;;;;;10.55;6.72;;;17.60;93.40;;;;;;5035058;28;20014;-66
2021/10/24 01:31:01;;;;;;;8.52;6.90;;;17.50;93.40;;;;;;5034551;28;20044;-65
2021/10/24 01:33:28;;;;;;;12.32;7.00;;;17.50;93.40;;;;;;5034971;28;20021;-66
2021/10/24 01:35:58;;;;;;;10.45;7.22;;;17.50;93.30;;;;;;5034723;28;20109;-79
2021/10/24 01:38:25;;;;;;;9.80;7.35;;;17.50;93.50;;;;;;5034696;28;20034;-77
2021/10/24 01:40:52;;;;;;;13.10;7.65;;;17.50;93.60;;;;;;5034511;28;20036;-65
2021/10/24 01:43:19;;;;;;;9.82;7.78;;;17.50;93.60;;;;;;5034574;28;20033;-65
2021/10/24 01:45:45;;;;;;;10.20;7.05;;;17.50;93.60;;;;;;5032900;28;20407;-65
2021/10/24 01:48:11;;;;;;;10.38;7.70;;;17.40;93.50;;;;;;5034369;28;20466;-66
2021/10/24 01:50:37;;;;;;;12.02;8.13;;;17.40;93.70;;;;;;5034363;28;20029;-65
2021/10/24 01:53:03;;;;;;;10.90;7.60;;;17.40;93.80;;;;;;5034323;28;20083;-65
2021/10/24 01:55:31;;;;;;;11.18;7.72;;;17.30;93.80;;;;;;5034531;28;20028;-66
2021/10/24 01:57:57;;;;;;;13.13;8.50;;;17.30;94.00;;;;;;5034713;28;20398;-65
2021/10/24 02:00:23;;;;;;;10.65;7.80;;;17.30;94.10;;;;;;5032996;28;20473;-66
2021/10/24 02:02:49;;;;;;;12.23;7.82;;;17.30;94.00;;;;;;5034432;28;20055;-66
2021/10/24 02:05:15;;;;;;;9.05;7.47;;;17.30;94.00;;;;;;5032692;28;20457;-66
2021/10/24 02:07:41;;;;;;;12.60;7.82;;;17.20;94.10;;;;;;5034256;28;20496;-65
2021/10/24 02:10:10;;;;;;;12.15;7.90;;;17.20;94.20;;;;;;5032684;28;20137;-66
2021/10/24 02:12:36;;;;;;;9.73;7.30;;;17.20;94.20;;;;;;5033906;28;20026;-66
2021/10/24 02:15:07;;;;;;;12.00;7.95;;;17.20;94.50;;;;;;5034000;28;20100;-65
2021/10/24 02:17:34;;;;;;;13.73;8.43;;;17.20;94.50;;;;;;5033954;28;20052;-65
2021/10/24 02:20:00;;;;;;;10.20;8.07;;;17.10;94.30;;;;;;5033572;28;20107;-65
2021/10/24 02:22:26;;;;;;;13.57;8.15;;;17.10;94.50;;;;;;5033604;28;20037;-66
2021/10/24 02:24:52;;;;;;;11.98;8.02;;;17.10;94.50;;;;;;5033359;28;20104;-67
2021/10/24 02:27:18;;;;;;;10.05;7.15;;;17.10;94.50;;;;;;5033600;28;20040;-66
2021/10/24 02:29:47;;;;;;;10.38;7.35;;;17.10;94.30;;;;;;5033678;28;20021;-65
2021/10/24 02:32:13;;;;;;;11.63;6.95;;;17.00;94.30;;;;;;5033581;28;20402;-64
2021/10/24 02:34:39;;;;;;;8.70;6.47;;;17.00;94.30;;;;;;5033492;28;20056;-65
2021/10/24 02:37:05;;;;;;;11.02;7.72;;;16.90;94.30;;;;;;5032282;28;20121;-66
2021/10/24 02:39:31;;;;;;;13.48;7.57;;;17.00;94.20;;;;;;5033447;28;20036;-65
2021/10/24 02:41:57;;;;;;;11.50;6.72;;;16.90;94.10;;;;;;5033315;28;20039;-65
2021/10/24 02:44:23;;;;;;;9.55;6.75;;;16.90;94.20;;;;;;5033358;28;20036;-65
2021/10/24 02:46:51;;;;;;;11.90;6.50;;;16.90;94.20;;;;;;5033422;28;20026;-65
2021/10/24 02:49:17;;;;;;;9.25;6.38;;;16.90;94.50;;;;;;5033197;28;20025;-66
2021/10/24 02:51:44;;;;;;;10.35;6.88;;;16.90;94.20;;;;;;5032748;28;20051;-65
2021/10/24 02:54:10;;;;;;;10.40;7.05;;;16.90;94.10;;;;;;5031880;28;20025;-65
2021/10/24 02:56:36;;;;;;;8.38;6.07;;;16.90;94.10;;;;;;5033362;28;20022;-65
2021/10/24 02:59:02;;;;;;;11.32;6.47;;;16.90;94.00;;;;;;5033280;28;20024;-67
2021/10/24 03:01:28;;;;;;;8.63;6.53;;;16.80;94.00;;;;;;5033029;28;20041;-66
2021/10/24 03:03:54;;;;;;;8.70;6.22;;;16.80;94.00;;;;;;5032966;28;20014;-66
2021/10/24 03:06:20;;;;;;;8.02;5.72;;;16.80;94.00;;;;;;5033024;28;20033;-66
2021/10/24 03:08:45;;;;;;;9.30;5.72;;;16.80;93.90;;;;;;5033098;28;20415;-65
2021/10/24 03:11:11;;;;;;;8.82;5.93;;;16.80;93.80;;;;;;5032967;28;20123;-65
2021/10/24 03:13:37;;;;;;;9.07;5.97;;;16.80;93.70;;;;;;5033229;28;20036;-65
2021/10/24 03:16:03;;;;;;;8.85;5.97;;;16.80;93.80;;;;;;5032991;28;20028;-67
2021/10/24 03:18:29;;;;;;;10.48;6.10;;;16.80;93.80;;;;;;5032838;28;20034;-65
2021/10/24 03:20:54;;;;;;;8.50;6.07;;;16.80;93.70;;;;;;5032431;28;20060;-65
2021/10/24 03:23:20;;;;;;;10.02;6.28;;;16.80;93.80;;;;;;5032893;28;20018;-64
2021/10/24 03:25:46;;;;;;;8.48;5.88;;;16.90;93.80;;;;;;5032693;28;20474;-66
2021/10/24 03:28:12;;;;;;;9.80;6.50;;;16.90;93.80;;;;;;5032977;28;20048;-65
2021/10/24 03:30:38;;;;;;;10.13;6.80;;;16.90;93.70;;;;;;5032541;28;20068;-64
2021/10/24 03:33:04;;;;;;;9.93;7.15;;;16.90;93.70;;;;;;5032702;28;20406;-65
2021/10/24 03:35:30;;;;;;;9.88;6.90;;;16.80;93.60;;;;;;5032890;28;20093;-65
2021/10/24 03:37:56;;;;;;;11.68;6.88;;;16.80;93.70;;;;;;5032566;28;20025;-65
2021/10/24 03:40:22;;;;;;;11.40;6.72;;;16.80;93.80;;;;;;5032789;28;20097;-67
2021/10/24 03:42:47;;;;;;;8.35;6.00;;;16.80;93.80;;;;;;5032785;28;20041;-66
2021/10/24 03:45:13;;;;;;;10.07;6.90;;;16.70;93.80;;;;;;5032903;28;20025;-65
2021/10/24 03:47:40;;;;;;;10.45;6.90;;;16.70;93.90;;;;;;5033028;28;20026;-67
2021/10/24 03:50:07;;;;;;;10.63;6.43;;;16.60;93.70;;;;;;5032853;28;20022;-65
2021/10/24 03:52:32;;;;;;;9.52;6.72;;;16.60;93.90;;;;;;5032553;28;20053;-66
2021/10/24 03:54:58;;;;;;;8.13;5.70;;;16.60;93.90;;;;;;5032419;28;20056;-64
2021/10/24 03:57:24;;;;;;;10.88;6.28;;;16.50;93.90;;;;;;5032916;28;20025;-65
2021/10/24 03:59:50;;;;;;;9.88;6.13;;;16.50;93.90;;;;;;5032694;28;20022;-65
2021/10/24 04:02:16;;;;;;;10.85;6.30;;;16.50;93.90;;;;;;5032448;28;20083;-64
2021/10/24 04:04:44;;;;;;;11.75;6.80;;;16.50;93.80;;;;;;5035906;28;20100;-65
2021/10/24 04:07:10;;;;;;;9.40;5.80;;;16.50;93.90;;;;;;5036045;28;20029;-65
2021/10/24 04:09:36;;;;;;;9.13;6.30;;;16.50;93.90;;;;;;5036203;28;20036;-65
2021/10/24 04:12:02;;;;;;;8.98;6.50;;;16.40;93.90;;;;;;5036079;28;20084;-66
2021/10/24 04:14:28;;;;;;;10.40;6.70;;;16.40;93.90;;;;;;5035986;28;20520;-65
2021/10/24 04:16:54;;;;;;;12.27;6.57;;;16.40;94.00;;;;;;5036130;28;20034;-66
2021/10/24 04:19:20;;;;;;;8.85;6.30;;;16.40;94.00;;;;;;5035993;28;20254;-66
2021/10/24 04:21:45;;;;;;;9.45;6.30;;;16.30;94.10;;;;;;5035668;28;20141;-65
2021/10/24 04:24:12;;;;;;;9.73;6.57;;;16.30;94.10;;;;;;5036090;28;20037;-65
2021/10/24 04:26:38;;;;;;;11.63;6.00;;;16.30;94.10;;;;;;5036050;28;20029;-65
2021/10/24 04:29:03;;;;;;;8.93;6.32;;;16.20;94.20;;;;;;5035946;28;20025;-64
2021/10/24 04:31:30;;;;;;;10.18;6.35;;;16.20;94.20;;;;;;5035579;28;20478;-65
2021/10/24 04:33:56;;;;;;;8.38;6.00;;;16.20;94.10;;;;;;5035839;28;20097;-64
2021/10/24 04:36:22;;;;;;;8.57;6.03;;;16.20;94.20;;;;;;5035501;28;20026;-64
2021/10/24 04:38:48;;;;;;;9.32;6.25;;;16.20;94.10;;;;;;5035522;28;20021;-65
2021/10/24 04:41:14;;;;;;;11.68;5.47;;;16.20;93.90;;;;;;5035430;28;20037;-65
2021/10/24 04:43:40;;;;;;;11.55;6.30;;;16.20;93.90;;;;;;5035506;28;20018;-66
2021/10/24 04:46:05;;;;;;;11.00;5.47;;;16.20;93.90;;;;;;5035540;28;20040;-66
2021/10/24 04:48:31;;;;;;;8.57;5.55;;;16.20;93.90;;;;;;5035510;28;20099;-65
2021/10/24 04:50:57;;;;;;;8.10;5.68;;;16.30;93.90;;;;;;5037577;28;20021;-73
2021/10/24 04:53:23;;;;;;;9.82;5.72;;;16.30;93.70;;;;;;5042867;28;20033;-72
2021/10/24 04:55:50;;;;;;;8.20;5.57;;;16.20;93.90;;;;;;5035273;28;20060;-65
2021/10/24 04:58:16;;;;;;;7.35;5.25;;;16.20;94.00;;;;;;5035346;28;20112;-65
2021/10/24 05:00:42;;;;;;;9.82;5.47;;;16.30;93.80;;;;;;5033884;28;20124;-68
2021/10/24 05:03:08;;;;;;;7.53;5.25;;;16.20;93.70;;;;;;5035214;28;20033;-66
2021/10/24 05:05:34;;;;;;;8.68;5.90;;;16.20;93.70;;;;;;5035189;28;20493;-65
2021/10/24 05:08:00;;;;;;;9.05;5.80;;;16.20;93.70;;;;;;5035355;28;20030;-65
2021/10/24 05:10:25;;;;;;;11.23;5.55;;;16.20;93.70;;;;;;5035284;28;20029;-67
2021/10/24 05:12:51;;;;;;;8.10;6.00;;;16.20;93.60;;;;;;5035493;28;20386;-68
2021/10/24 05:15:19;;;;;;;9.65;5.03;;;16.20;93.60;;;;;;5036612;28;20021;-67
2021/10/24 05:17:45;;;;;;;9.48;5.30;;;16.30;93.60;;;;;;5037560;28;20059;-65
2021/10/24 05:20:11;;;;;;;8.30;5.68;;;16.30;93.50;;;;;;5035108;28;20144;-64
2021/10/24 05:22:37;;;;;;;7.57;5.35;;;16.20;93.30;;;;;;5034870;28;20151;-65
2021/10/24 05:25:03;;;;;;;7.65;5.30;;;16.20;93.30;;;;;;5034832;28;20018;-64
2021/10/24 05:27:29;;;;;;;10.32;5.47;;;16.20;93.40;;;;;;5035257;28;20029;-65
2021/10/24 05:29:55;;;;;;;8.43;5.82;;;16.20;93.50;;;;;;5035143;28;20028;-65
2021/10/24 05:32:20;;;;;;;8.38;5.18;;;16.20;93.40;;;;;;5034619;28;20026;-66
2021/10/24 05:34:46;;;;;;;9.02;5.63;;;16.20;93.50;;;;;;5034876;28;20496;-65
2021/10/24 05:37:12;;;;;;;7.78;5.75;;;16.20;93.40;;;;;;5034484;28;20033;-66
2021/10/24 05:39:37;;;;;;;12.10;5.80;;;16.20;93.50;;;;;;5034950;28;20033;-67
2021/10/24 05:42:03;;;;;;;8.65;5.68;;;16.30;93.60;;;;;;5034548;28;20045;-69
2021/10/24 05:44:29;;;;;;;8.77;5.25;;;16.20;93.30;;;;;;5035033;28;20064;-70
2021/10/24 05:46:55;;;;;;;8.40;5.88;;;16.30;93.50;;;;;;5034431;28;20057;-69
2021/10/24 05:49:22;;;;;;;8.85;5.20;;;16.30;93.50;;;;;;5034507;28;20060;-68
2021/10/24 05:51:48;;;;;;;7.88;4.57;;;16.30;93.20;;;;;;5034429;28;20030;-67
2021/10/24 05:54:14;;;;;;;8.63;5.03;;;16.30;93.10;;;;;;5034898;28;20075;-69
2021/10/24 05:56:39;;;;;;;8.50;5.20;;;16.30;93.10;;;;;;5034720;28;20463;-68
2021/10/24 05:59:05;;;;;;;7.38;5.15;;;16.30;93.30;;;;;;5034696;28;20117;-68
2021/10/24 06:01:31;;;;;;;7.82;5.15;;;16.30;92.90;;;;;;5034210;28;20096;-69
2021/10/24 06:03:56;;;;;;;7.13;5.15;;;16.30;92.80;;;;;;5034209;28;20028;-69
2021/10/24 06:06:22;;;;;;;7.75;5.05;;;16.30;92.70;;;;;;5033979;28;20087;-69
2021/10/24 06:08:48;;;;;;;9.13;5.15;;;16.30;92.70;;;;;;5016273;28;20100;-68
2021/10/24 06:11:19;;;;;;;9.02;5.10;;;16.40;92.60;;;;;;5034437;28;20033;-68
2021/10/24 06:13:47;;;;;;;6.57;4.05;;;16.40;92.60;;;;;;5034099;28;20025;-67
2021/10/24 06:16:13;;;;;;;9.65;4.72;;;16.40;92.30;;;;;;5033764;28;20101;-67
2021/10/24 06:18:40;;;;;;;8.98;4.82;;;16.40;92.30;;;;;;5034092;28;20378;-70
2021/10/24 06:21:06;;;;;;;10.65;4.45;;;16.50;92.30;;;;;;5033447;28;20041;-70
2021/10/24 06:23:32;;;;;;;8.15;4.30;;;16.60;92.10;;;;;;5032255;28;20378;-67
2021/10/24 06:25:58;;;;;;;7.75;4.72;;;16.60;91.90;;;;;;5038727;28;20084;-69
2021/10/24 06:28:26;;;;;;;7.13;4.10;;;16.60;91.60;;;;;;5043277;28;20033;-68
2021/10/24 06:30:52;;;;;;;9.82;4.72;;;16.70;91.40;;;;;;5052619;28;20474;-70
2021/10/24 06:33:18;;;;;;;9.38;5.00;;;16.70;91.00;;;;;;5053637;28;20025;-70
2021/10/24 06:35:45;;;;;;;8.00;4.25;;;16.80;91.00;;;;;;5053641;28;20052;-70
2021/10/24 06:38:11;;;;;;;6.55;4.30;;;16.90;90.80;;;;;;5052195;28;20149;-69
2021/10/24 06:40:37;;;;;;;5.78;4.00;;;17.00;90.70;;;;;;5053333;28;20033;-73
2021/10/24 06:43:03;;;;;;;6.72;4.22;;;17.00;90.20;;;;;;5053544;28;20021;-69
2021/10/24 06:45:28;;;;;;;11.63;5.03;;;17.20;90.20;;;;;;5052739;28;20405;-69
2021/10/24 06:47:54;;;;;;;10.93;4.68;;;17.30;90.00;;;;;;5053136;28;20024;-71
2021/10/24 06:50:20;;;;;;;10.38;4.72;;;17.40;89.20;;;;;;5038917;28;20033;-70
2021/10/24 06:52:46;;;;;;;9.13;4.57;;;17.50;88.40;;;;;;5045550;28;20042;-70
2021/10/24 06:55:12;;;;;;;9.52;4.50;;;17.60;88.00;;;;;;5032128;28;20445;-70
2021/10/24 06:57:48;;;;;;;11.70;5.40;;;17.70;87.10;;;;;;5032873;28;20068;-69
2021/10/24 07:00:18;;;;;;;7.03;3.92;;;17.80;87.20;;;;;;5031537;28;20451;-71
2021/10/24 07:02:43;;;;;;;15.23;5.07;;;17.80;85.60;;;;;;5033046;28;20033;-70
2021/10/24 07:05:09;;;;;;;10.10;5.13;;;17.90;85.70;;;;;;5031511;28;20076;-70
2021/10/24 07:07:35;;;;;;;10.52;4.88;;;18.00;85.70;;;;;;5032905;28;20028;-70
2021/10/24 07:10:01;;;;;;;8.20;4.30;;;18.00;85.40;;;;;;5031541;28;20112;-71
2021/10/24 07:12:26;;;;;;;12.10;4.68;;;18.10;84.30;;;;;;5032812;28;20080;-70
2021/10/24 07:14:52;;;;;;;10.13;4.38;;;18.20;84.00;;;;;;5032567;28;20029;-70
2021/10/24 07:17:18;;;;;;;7.90;4.10;;;18.30;83.80;;;;;;5032569;28;20021;-69
2021/10/24 07:19:43;;;;;;;7.43;4.07;;;18.30;82.70;;;;;;5031223;28;20144;-69
2021/10/24 07:22:09;;;;;;;7.05;3.70;;;18.30;82.80;;;;;;5032189;28;20143;-69
2021/10/24 07:24:35;;;;;;;6.45;3.50;;;18.40;82.60;;;;;;5032443;28;20043;-70
2021/10/24 07:27:01;;;;;;;8.45;3.72;;;18.40;82.40;;;;;;5032390;28;20040;-71
2021/10/24 07:29:27;;;;;;;8.82;4.00;;;18.40;82.00;;;;;;5032159;28;20309;-70
2021/10/24 07:31:53;;;;;;;5.43;3.20;;;18.40;81.50;;;;;;5032216;28;20025;-70
2021/10/24 07:34:20;;;;;;;10.10;3.83;;;18.50;81.50;;;;;;5032430;28;20052;-70
2021/10/24 07:36:46;;;;;;;7.40;4.03;;;18.50;81.00;;;;;;5033142;28;20056;-70
2021/10/24 07:39:12;;;;;;;5.00;2.65;;;18.50;80.80;;;;;;5036253;28;20029;-69
2021/10/24 07:41:38;;;;;;;5.55;3.15;;;18.50;80.20;;;;;;5034984;28;20037;-69
2021/10/24 07:44:06;;;;;;;5.53;3.28;;;18.50;80.50;;;;;;5036115;28;20552;-70
2021/10/24 07:46:31;;;;;;;5.43;3.10;;;18.50;80.10;;;;;;5036623;28;20018;-69
2021/10/24 07:48:57;;;;;;;5.50;3.00;;;18.50;80.20;;;;;;5036775;28;20032;-69
2021/10/24 07:51:23;;;;;;;7.00;3.05;;;18.50;80.20;;;;;;5036298;28;20026;-69
2021/10/24 07:53:48;;;;;;;7.05;3.22;;;18.40;80.20;;;;;;5036557;28;20029;-70
2021/10/24 07:56:14;;;;;;;8.18;3.13;;;18.50;80.30;;;;;;5036320;28;20060;-70
2021/10/24 07:58:41;;;;;;;5.55;3.35;;;18.50;80.10;;;;;;5036461;28;20022;-70
2021/10/24 08:01:07;;;;;;;6.10;3.03;;;18.60;80.00;;;;;;5036167;28;20036;-69
2021/10/24 08:03:32;;;;;;;7.15;3.05;;;18.60;79.40;;;;;;5036367;28;20074;-70
2021/10/24 08:05:59;;;;;;;4.97;3.30;;;18.60;79.20;;;;;;5036713;28;20101;-69
2021/10/24 08:08:25;;;;;;;6.47;3.17;;;18.60;79.80;;;;;;5036816;28;20030;-68
2021/10/24 08:10:50;;;;;;;8.23;3.75;;;18.60;79.10;;;;;;5036877;28;20025;-70
2021/10/24 08:13:17;;;;;;;6.80;3.67;;;18.70;79.10;;;;;;5036685;28;20455;-70
2021/10/24 08:15:42;;;;;;;6.18;2.75;;;18.70;78.90;;;;;;5036775;28;20025;-69
2021/10/24 08:18:08;;;;;;;8.65;2.90;;;18.70;78.90;;;;;;5036625;28;20443;-70
2021/10/24 08:20:34;;;;;;;6.68;3.05;;;18.80;78.90;;;;;;5036075;28;20060;-69
2021/10/24 08:23:01;;;;;;;5.65;2.60;;;18.80;78.70;;;;;;5036147;28;20032;-69
2021/10/24 08:25:27;;;;;;;9.52;3.00;;;18.90;78.20;;;;;;5036234;28;20483;-70
2021/10/24 08:27:54;;;;;;;5.40;3.20;;;18.90;78.10;;;;;;5036642;28;20124;-69
2021/10/24 08:30:20;;;;;;;7.65;3.00;;;19.00;77.80;;;;;;5036260;28;20030;-70
2021/10/24 08:32:46;;;;;;;8.52;2.97;;;19.00;77.60;;;;;;5036766;28;20026;-68
2021/10/24 08:35:12;;;;;;;5.22;2.60;;;19.10;77.50;;;;;;5037342;28;20466;-70
2021/10/24 08:37:38;;;;;;;5.93;2.50;;;19.20;77.40;;;;;;5037336;28;20029;-70
2021/10/24 08:40:06;;;;;;;5.57;2.53;;;19.30;76.90;;;;;;5049519;28;20077;-70
2021/10/24 08:42:38;;;;;;;6.45;3.00;;;19.30;76.60;;;;;;5057816;28;20097;-70
2021/10/24 08:45:04;;;;;;;5.82;2.60;;;19.40;76.20;;;;;;5045392;28;20014;-70
2021/10/24 08:47:30;;;;;;;5.60;2.97;;;19.50;76.10;;;;;;5036463;28;20060;-69
2021/10/24 08:49:56;;;;;;;4.82;2.50;;;19.50;75.60;;;;;;5035386;28;20068;-68
2021/10/24 08:52:23;;;;;;;4.57;2.60;;;19.60;75.10;;;;;;5036268;28;20013;-69
2021/10/24 08:54:50;;;;;;;6.82;2.47;;;19.70;75.10;;;;;;5035367;28;20053;-70
2021/10/24 08:57:27;;;;;;;6.30;2.47;;;19.80;74.60;;;;;;5035912;28;20021;-70
2021/10/24 08:59:57;;;;;;;5.43;2.42;;;19.90;74.30;;;;;;5035855;28;20055;-70
2021/10/24 09:02:25;;;;;;;5.05;2.38;;;20.00;74.60;;;;;;5035665;28;20033;-70
2021/10/24 09:04:52;;;;;;;5.50;2.38;;;20.00;73.50;;;;;;5035166;28;20022;-71
2021/10/24 09:07:19;;;;;;;5.75;2.78;;;20.10;73.60;;;;;;5035155;28;20048;-69
2021/10/24 09:09:44;;;;;;;8.15;2.50;;;20.20;73.80;;;;;;5035255;28;20021;-68
2021/10/24 09:12:13;;;;;;;4.32;2.60;;;20.20;72.90;;;;;;5034913;28;20032;-70
2021/10/24 09:14:55;;;;;;;4.85;2.75;;;20.30;73.50;;;;;;5034934;28;20025;-70
2021/10/24 09:17:24;;;;;;;5.35;2.30;;;20.40;72.10;;;;;;5034944;28;20053;-70
2021/10/24 09:19:55;;;;;;;5.28;2.10;;;20.50;71.00;;;;;;5034442;28;20490;-69
2021/10/24 09:22:39;;;;;;;5.07;2.65;;;20.60;70.30;;;;;;5035438;28;20150;-70
2021/10/24 09:25:05;;;;;;;;;;;20.70;70.20;;;;;;5034984;28;20406;-70
2021/10/24 09:27:43;;;;;;;4.72;2.20;;;20.80;69.00;;;;;;5034571;28;19999;-70
2021/10/24 09:30:15;;;;;;;4.22;2.38;;;20.80;70.30;;;;;;5034484;28;20033;-70
2021/10/24 09:32:59;;;;;;;4.28;2.45;;;20.90;70.30;;;;;;5034675;28;20029;-70
2021/10/24 09:35:37;;;;;;;6.03;2.10;;;21.00;68.80;;;;;;5033485;28;20550;-70
2021/10/24 09:38:06;;;;;;;4.00;2.45;;;21.10;68.40;;;;;;5034605;28;20478;-70
2021/10/24 09:40:35;;;;;;;4.35;2.28;;;21.20;68.80;;;;;;5034058;28;20046;-71
2021/10/24 09:43:18;;;;;;;3.70;2.13;;;21.30;68.70;;;;;;5034372;28;20112;-72
2021/10/24 09:45:45;;;;;;;;;;;21.30;67.20;;;;;;5034686;28;20442;-70
2021/10/24 09:48:13;;;;;;;4.75;2.28;;;21.40;66.80;;;;;;5034331;28;20274;-71
2021/10/24 09:50:51;;;;;;;5.65;2.40;;;21.50;68.40;;;;;;5034004;28;20026;-70
2021/10/24 09:53:20;;;;;;;4.57;2.30;;;21.50;67.40;;;;;;5034033;28;20116;-69
2021/10/24 09:56:00;;;;;;;5.25;2.55;;;21.60;65.10;;;;;;5033993;28;20471;-70
2021/10/24 09:58:26;;;;;;;5.35;2.53;;;21.70;66.90;;;;;;5034107;28;20144;-71
2021/10/24 10:00:53;;;;;;;4.07;2.25;;;21.80;66.60;;;;;;5033052;28;20041;-71
2021/10/24 10:03:20;;;;;;;4.35;2.65;;;21.90;66.20;;;;;;5034504;28;20025;-71
2021/10/24 10:05:46;;;;;;;4.43;2.42;;;22.00;66.20;;;;;;5033787;28;20097;-70
2021/10/24 10:08:12;;;;;;;4.82;2.72;;;22.00;65.30;;;;;;5033668;28;20103;-69
2021/10/24 10:10:49;;;;;;;5.13;2.67;;;22.10;65.50;;;;;;5033608;28;20026;-69
2021/10/24 10:13:21;;;;;;;4.50;2.60;;;22.20;65.00;;;;;;5033594;28;20112;-69
2021/10/24 10:15:49;;;;;;;5.20;2.38;;;22.30;65.10;;;;;;5033688;28;20391;-70
2021/10/24 10:18:19;;;;;;;4.47;2.17;;;22.30;64.40;;;;;;5033637;28;20491;-70
2021/10/24 10:20:50;;;;;;;5.43;2.10;;;22.40;63.40;;;;;;5033387;28;20049;-69
2021/10/24 10:23:43;;;;;;;3.83;2.42;;;22.50;62.70;;;;;;5033549;28;20026;-69
2021/10/24 10:26:45;;;;;;;7.07;2.10;;;22.50;60.40;;;;;;5032992;28;20042;-70
2021/10/24 10:29:35;;;;;;;3.25;2.08;;;22.70;60.60;;;;;;5032687;28;20041;-70
2021/10/24 10:32:18;;;;;;;4.35;2.00;;;22.70;61.80;;;;;;5033070;28;20036;-70
2021/10/24 10:34:56;;;;;;;3.65;2.15;;;22.80;61.30;;;;;;5033149;28;20033;-70
2021/10/24 10:37:40;;;;;;;5.00;2.20;;;22.90;60.30;;;;;;5033148;28;20022;-70
2021/10/24 10:40:33;;;;;;;3.35;2.08;;;23.00;59.10;;;;;;5033387;28;20033;-70
2021/10/24 10:43:04;;;;;;;5.70;2.20;;;23.00;60.50;;;;;;5032845;28;20087;-70
2021/10/24 10:45:33;;;;;;;3.17;1.90;;;23.10;59.90;;;;;;5035541;28;20032;-73
2021/10/24 10:47:59;;;;;;;4.03;2.10;;;23.10;59.10;;;;;;5033009;28;20583;-71
2021/10/24 10:50:31;;;;;;;4.38;1.95;;;23.20;59.20;;;;;;5043653;28;20029;-69
2021/10/24 10:53:02;;;;;;;4.07;2.20;;;23.30;58.00;;;;;;5035795;28;20110;-73
2021/10/24 10:56:06;;;;;;;4.22;2.20;;;23.30;58.60;;;;;;5032664;28;20025;-74
2021/10/24 10:58:46;;;;;;;4.93;2.08;;;23.30;57.80;;;;;;5032692;28;20120;-73
2021/10/24 11:01:24;;;;;;;4.30;2.03;;;23.40;58.20;;;;;;5032522;28;20042;-76
2021/10/24 11:03:59;;;;;;;6.88;2.45;;;23.50;57.20;;;;;;5032829;28;20024;-74
2021/10/24 11:06:28;;;;;;;4.97;2.10;;;23.60;57.80;;;;;;5031397;28;20057;-73
2021/10/24 11:08:59;;;;;;;3.13;1.73;;;23.60;56.80;;;;;;5032799;28;20029;-74
2021/10/24 11:11:37;;;;;;;4.90;2.60;;;23.70;56.40;;;;;;5032549;28;20029;-72
2021/10/24 11:14:15;;;;;;;5.10;2.42;;;23.80;56.70;;;;;;5032706;28;20451;-73
2021/10/24 11:16:44;;;;;;;3.47;2.00;;;23.80;56.20;;;;;;5032728;28;20025;-74
2021/10/24 11:19:38;;;;;;;3.20;1.90;;;23.80;56.00;;;;;;5037843;28;20029;-73
2021/10/24 11:22:14;;;;;;;4.22;2.15;;;23.80;54.90;;;;;;5044358;28;20557;-76
2021/10/24 11:24:44;;;;;;;4.18;2.00;;;23.90;55.70;;;;;;5052753;28;20048;-75
2021/10/24 11:27:15;;;;;;;3.45;1.85;;;23.80;55.50;;;;;;5053127;28;20450;-76
2021/10/24 11:29:53;;;;;;;4.68;2.30;;;23.90;55.70;;;;;;5053114;28;20024;-68
2021/10/24 11:32:34;;;;;;;8.77;2.45;;;23.90;55.30;;;;;;5052923;28;20029;-74
2021/10/24 11:35:17;;;;;;;4.97;2.30;;;23.90;55.50;;;;;;5052867;28;20021;-75
2021/10/24 11:37:48;;;;;;;4.50;2.47;;;24.00;55.30;;;;;;5052611;28;20036;-75
2021/10/24 11:40:18;;;;;;;8.10;2.70;;;24.00;54.60;;;;;;5034393;28;20030;-73
2021/10/24 11:43:02;;;;;;;8.90;2.63;;;24.10;55.10;;;;;;5032874;28;20037;-73
2021/10/24 11:45:38;;;;;;;;;;;24.20;54.30;;;;;;5033214;28;20048;-75
2021/10/24 11:48:10;;;;;;;5.50;2.40;;;24.20;53.60;;;;;;5032902;28;19905;-75
2021/10/24 11:50:43;;;;;;;6.13;2.03;;;24.20;54.30;;;;;;5033551;28;20026;-80
2021/10/24 11:53:23;;;;;;;4.97;2.65;;;24.20;53.60;;;;;;5033112;28;20026;-73
2021/10/24 11:55:54;;;;;;;6.30;2.47;;;24.30;54.20;;;;;;5032417;28;20037;-73
2021/10/24 12:01:26;;;;;;;6.53;2.10;;;24.40;52.30;;;;;;5032414;28;20022;-73
2021/10/24 12:03:57;;;;;;;5.13;2.10;;;24.50;53.00;;;;;;5032412;28;20034;-74
2021/10/24 12:06:51;;;;;;;5.10;2.10;;;24.60;53.40;;;;;;5032779;28;20447;-71
2021/10/24 12:09:52;;;;;;;4.75;2.15;;;24.70;51.70;;;;;;5032900;28;20025;-73
2021/10/24 12:12:35;;;;;;;5.22;2.30;;;24.80;52.10;;;;;;5034248;28;20116;-74
2021/10/24 12:15:06;;;;;;;5.10;2.10;;;24.80;51.90;;;;;;5032859;28;20033;-72
2021/10/24 12:17:37;;;;;;;3.42;2.15;;;24.90;50.60;;;;;;5032526;28;20068;-73
2021/10/24 12:20:35;;;;;;;3.50;2.05;;;24.90;51.90;;;;;;5031077;28;20041;-72
2021/10/24 12:23:03;;;;;;;4.32;2.20;;;25.00;51.70;;;;;;5031317;28;20079;-71
2021/10/24 12:25:56;;;;;;;2.95;1.90;;;25.00;51.60;;;;;;5035839;28;20037;-71
2021/10/24 12:28:32;;;;;;;3.47;1.98;;;25.10;51.00;;;;;;5036046;28;20033;-73
2021/10/24 12:31:06;;;;;;;4.82;2.10;;;25.10;51.60;;;;;;5036000;28;20116;-74
2021/10/24 12:33:36;;;;;;;6.10;2.70;;;25.10;51.30;;;;;;5043127;28;20053;-69
2021/10/24 12:36:06;;;;;;;6.82;2.05;;;25.20;50.50;;;;;;5043409;28;20025;-71
2021/10/24 12:38:50;;;;;;;3.40;1.90;;;25.30;51.00;;;;;;5045588;28;20096;-77
2021/10/24 12:41:32;;;;;;;4.30;2.03;;;25.30;50.70;;;;;;5035816;28;20504;-69
2021/10/24 12:43:58;;;;;;;2.88;1.70;;;25.30;50.80;;;;;;5036203;28;20550;-72
2021/10/24 12:46:29;;;;;;;4.28;2.10;;;25.40;50.40;;;;;;5036070;28;20113;-73
2021/10/24 12:48:55;;;;;;;3.28;1.90;;;25.40;50.00;;;;;;5035943;28;20033;-73
2021/10/24 12:51:27;;;;;;;3.30;1.80;;;25.40;50.10;;;;;;5035759;28;20033;-74
2021/10/24 12:53:55;;;;;;;3.05;1.73;;;25.40;48.70;;;;;;5035803;28;20100;-72